createdAt,value
2022-12-04T00:00:27.632Z,24.30
2022-12-04T00:02:54.395Z,16.60
2022-12-04T00:05:21.066Z,21.10
2022-12-04T00:07:48.124Z,20.90
2022-12-04T00:10:14.922Z,21.60
2022-12-04T00:12:41.546Z,19.10
2022-12-04T00:15:25.181Z,22.50
2022-12-04T00:17:54.857Z,21.90
2022-12-04T00:20:22.833Z,22.10
2022-12-04T00:22:49.541Z,21.80
2022-12-04T00:25:16.332Z,20.40
2022-12-04T00:27:43.047Z,23.70
2022-12-04T00:30:11.014Z,19.80
2022-12-04T00:32:37.643Z,23.80
2022-12-04T00:35:04.917Z,23.90
2022-12-04T00:37:32.691Z,23.00
2022-12-04T00:39:59.301Z,23.80
2022-12-04T00:42:26.015Z,21.90
2022-12-04T00:44:52.652Z,20.10
2022-12-04T00:47:19.356Z,22.90
2022-12-04T00:49:45.986Z,23.40
2022-12-04T00:52:12.689Z,20.90
2022-12-04T00:54:39.429Z,24.40
2022-12-04T00:57:06.101Z,20.40
2022-12-04T00:59:32.796Z,19.90
2022-12-04T01:01:59.402Z,24.90
2022-12-04T01:04:26.038Z,22.50
2022-12-04T01:06:52.731Z,21.80
2022-12-04T01:09:19.504Z,22.60
2022-12-04T01:11:46.225Z,23.00
2022-12-04T01:14:12.919Z,22.50
2022-12-04T01:16:40.497Z,23.10
2022-12-04T01:19:11.274Z,25.50
2022-12-04T01:21:39.228Z,24.10
2022-12-04T01:24:07.101Z,23.70
2022-12-04T01:26:34.196Z,25.30
2022-12-04T01:29:01.354Z,22.70
2022-12-04T01:31:28.109Z,24.10
2022-12-04T01:33:54.866Z,20.90
2022-12-04T01:36:26.803Z,22.70
2022-12-04T01:38:55.250Z,25.00
2022-12-04T01:41:28.851Z,25.80
2022-12-04T01:44:10.386Z,22.60
2022-12-04T01:49:20.555Z,23.40
2022-12-04T01:52:00.730Z,24.80
2022-12-04T01:54:33.344Z,25.40
2022-12-04T01:57:17.868Z,25.50
2022-12-04T01:59:55.024Z,26.70
2022-12-04T02:02:28.722Z,25.50
2022-12-04T02:04:56.105Z,28.80
2022-12-04T02:07:22.750Z,28.00
2022-12-04T02:09:55.299Z,26.40
2022-12-04T02:12:32.772Z,29.30
2022-12-04T02:15:46.793Z,30.30
2022-12-04T02:18:47.603Z,24.70
2022-12-04T02:21:28.641Z,26.40
2022-12-04T02:24:20.373Z,26.10
2022-12-04T02:29:27.211Z,25.10
2022-12-04T02:32:20.652Z,23.10
2022-12-04T02:35:01.846Z,26.10
2022-12-04T02:37:37.422Z,25.00
2022-12-04T02:40:24.594Z,25.80
2022-12-04T02:43:12.304Z,24.30
2022-12-04T02:45:46.712Z,24.00
2022-12-04T02:48:20.212Z,24.40
2022-12-04T02:50:50.605Z,26.60
2022-12-04T02:53:22.596Z,27.00
2022-12-04T02:56:01.090Z,24.70
2022-12-04T02:58:38.717Z,25.10
2022-12-04T03:01:19.846Z,26.10
2022-12-04T03:04:00.091Z,24.30
2022-12-04T03:06:32.032Z,23.80
2022-12-04T03:09:09.026Z,28.30
2022-12-04T03:11:39.982Z,24.60
2022-12-04T03:14:28.913Z,24.00
2022-12-04T03:17:04.548Z,26.10
2022-12-04T03:19:41.286Z,26.20
2022-12-04T03:22:13.755Z,25.80
2022-12-04T03:24:48.007Z,26.50
2022-12-04T03:27:25.669Z,26.30
2022-12-04T03:30:07.002Z,23.50
2022-12-04T03:32:59.402Z,25.10
2022-12-04T03:35:33.219Z,27.00
2022-12-04T03:38:15.298Z,26.90
2022-12-04T03:40:57.536Z,23.30
2022-12-04T03:43:34.648Z,27.00
2022-12-04T03:46:09.548Z,26.60
2022-12-04T03:49:23.842Z,23.30
2022-12-04T03:52:09.267Z,22.00
2022-12-04T03:54:53.905Z,27.80
2022-12-04T03:57:28.525Z,25.90
2022-12-04T04:00:15.421Z,29.60
2022-12-04T04:02:58.697Z,26.30
2022-12-04T04:05:28.087Z,22.70
2022-12-04T04:08:20.422Z,23.80
2022-12-04T04:10:48.999Z,23.80
2022-12-04T04:13:41.935Z,25.00
2022-12-04T04:16:43.303Z,22.10
2022-12-04T04:19:31.673Z,23.30
2022-12-04T04:22:18.329Z,25.20
2022-12-04T04:24:51.242Z,28.00
2022-12-04T04:27:17.868Z,26.80
2022-12-04T04:29:51.868Z,25.80
2022-12-04T04:32:37.785Z,26.60
2022-12-04T04:35:21.838Z,25.50
2022-12-04T04:38:22.487Z,25.60
2022-12-04T04:41:04.385Z,27.60
2022-12-04T04:43:51.438Z,27.30
2022-12-04T04:46:30.857Z,25.40
2022-12-04T04:49:02.971Z,24.50
2022-12-04T04:51:33.352Z,26.50
2022-12-04T04:54:05.135Z,27.40
2022-12-04T04:56:31.889Z,26.60
2022-12-04T04:58:58.512Z,25.20
2022-12-04T05:01:28.027Z,24.70
2022-12-04T05:03:54.685Z,25.40
2022-12-04T05:06:21.328Z,24.70
2022-12-04T05:08:48.617Z,28.10
2022-12-04T05:11:16.751Z,24.90
2022-12-04T05:13:43.528Z,25.30
2022-12-04T05:16:13.277Z,27.10
2022-12-04T05:18:40.843Z,26.50
2022-12-04T05:21:18.010Z,25.10
2022-12-04T05:23:44.691Z,27.60
2022-12-04T05:26:11.559Z,26.70
2022-12-04T05:28:40.269Z,25.30
2022-12-04T05:31:07.359Z,25.80
2022-12-04T05:33:34.222Z,28.00
2022-12-04T05:36:07.829Z,27.20
2022-12-04T05:38:35.708Z,25.30
2022-12-04T05:41:05.509Z,27.30
2022-12-04T05:43:33.113Z,27.80
2022-12-04T05:46:06.022Z,27.20
2022-12-04T05:48:34.157Z,28.20
2022-12-04T05:51:07.632Z,25.30
2022-12-04T05:53:34.817Z,27.40
2022-12-04T05:56:04.534Z,31.10
2022-12-04T05:58:35.566Z,27.80
2022-12-04T06:01:19.784Z,27.30
2022-12-04T06:03:46.479Z,25.30
2022-12-04T06:06:21.466Z,28.80
2022-12-04T06:08:51.453Z,29.50
2022-12-04T06:11:25.906Z,28.80
2022-12-04T06:13:53.129Z,27.70
2022-12-04T06:16:33.077Z,27.30
2022-12-04T06:19:05.713Z,29.10
2022-12-04T06:21:35.320Z,28.20
2022-12-04T06:24:03.030Z,29.10
2022-12-04T06:26:29.907Z,32.70
2022-12-04T06:28:58.462Z,30.90
2022-12-04T06:31:27.819Z,29.50
2022-12-04T06:33:56.993Z,28.70
2022-12-04T06:36:24.718Z,27.40
2022-12-04T06:38:55.553Z,31.60
2022-12-04T06:41:24.018Z,30.70
2022-12-04T06:43:51.186Z,28.80
2022-12-04T06:46:28.005Z,31.50
2022-12-04T06:48:56.828Z,28.20
2022-12-04T06:51:27.712Z,31.80
2022-12-04T06:53:54.395Z,28.70
2022-12-04T06:56:25.283Z,29.20
2022-12-04T06:58:55.348Z,33.70
2022-12-04T07:01:25.784Z,28.70
2022-12-04T07:03:52.890Z,28.90
2022-12-04T07:06:42.210Z,30.60
2022-12-04T07:09:14.340Z,27.50
2022-12-04T07:11:42.574Z,24.40
2022-12-04T07:14:10.732Z,28.70
2022-12-04T07:16:41.420Z,32.50
2022-12-04T07:19:13.337Z,28.40
2022-12-04T07:21:40.992Z,27.50
2022-12-04T07:24:08.158Z,27.70
2022-12-04T07:26:35.838Z,29.80
2022-12-04T07:29:02.518Z,33.80
2022-12-04T07:31:29.772Z,29.40
2022-12-04T07:33:57.453Z,34.70
2022-12-04T07:36:25.630Z,30.20
2022-12-04T07:38:54.905Z,30.10
2022-12-04T07:41:21.772Z,33.40
2022-12-04T07:43:48.400Z,32.20
2022-12-04T07:46:27.323Z,32.30
2022-12-04T07:48:56.072Z,29.80
2022-12-04T07:51:26.488Z,33.20
2022-12-04T07:54:01.992Z,33.20
2022-12-04T07:56:30.355Z,36.00
2022-12-04T07:58:57.144Z,34.80
2022-12-04T08:01:24.072Z,35.60
2022-12-04T08:03:54.856Z,31.30
2022-12-04T08:06:23.821Z,37.10
2022-12-04T08:08:52.042Z,33.00
2022-12-04T08:11:22.082Z,31.10
2022-12-04T08:13:56.764Z,33.30
2022-12-04T08:16:24.534Z,31.20
2022-12-04T08:18:53.057Z,33.40
2022-12-04T08:21:22.982Z,35.30
2022-12-04T08:23:52.117Z,33.90
2022-12-04T08:26:21.982Z,39.30
2022-12-04T08:28:49.089Z,38.00
2022-12-04T08:31:19.987Z,34.20
2022-12-04T08:33:49.155Z,35.60
2022-12-04T08:36:19.753Z,33.80
2022-12-04T08:38:47.895Z,34.80
2022-12-04T08:41:18.296Z,33.50
2022-12-04T08:43:46.004Z,37.20
2022-12-04T08:46:16.513Z,35.30
2022-12-04T08:48:47.322Z,36.90
2022-12-04T08:51:18.625Z,35.00
2022-12-04T08:53:48.401Z,34.00
2022-12-04T08:56:15.261Z,35.70
2022-12-04T08:58:41.927Z,34.40
2022-12-04T09:01:12.696Z,34.30
2022-12-04T09:03:40.801Z,37.30
2022-12-04T09:06:12.674Z,36.10
2022-12-04T09:08:41.201Z,35.70
2022-12-04T09:11:16.390Z,37.80
2022-12-04T09:13:45.035Z,35.30
2022-12-04T09:16:19.544Z,33.10
2022-12-04T09:18:47.367Z,33.90
2022-12-04T09:21:17.690Z,34.30
2022-12-04T09:23:45.642Z,35.90
2022-12-04T09:26:28.643Z,38.20
2022-12-04T09:29:00.025Z,37.10
2022-12-04T09:31:28.269Z,33.60
2022-12-04T09:33:59.263Z,35.60
2022-12-04T09:36:27.262Z,43.50
2022-12-04T09:38:55.914Z,35.70
2022-12-04T09:41:47.172Z,34.40
2022-12-04T09:44:28.146Z,32.60
2022-12-04T09:47:21.283Z,38.40
2022-12-04T09:50:17.907Z,36.60
2022-12-04T09:53:10.646Z,32.20
2022-12-04T09:56:04.722Z,34.40
2022-12-04T09:58:54.008Z,33.00
2022-12-04T10:01:43.415Z,34.50
2022-12-04T10:04:12.515Z,35.20
2022-12-04T10:06:49.739Z,36.00
2022-12-04T10:09:55.545Z,32.70
2022-12-04T10:12:44.057Z,30.30
2022-12-04T10:15:27.915Z,31.90
2022-12-04T10:18:44.102Z,37.80
2022-12-04T10:21:33.910Z,32.90
2022-12-04T10:24:37.507Z,35.00
2022-12-04T10:27:16.764Z,36.40
2022-12-04T10:29:50.948Z,41.20
2022-12-04T10:32:25.384Z,33.30
2022-12-04T10:34:56.918Z,33.70
2022-12-04T10:37:25.073Z,34.30
2022-12-04T10:40:09.532Z,34.80
2022-12-04T10:42:45.617Z,37.30
2022-12-04T10:45:13.154Z,37.40
2022-12-04T10:47:48.305Z,33.90
2022-12-04T10:50:22.862Z,39.30
2022-12-04T10:52:50.559Z,35.20
2022-12-04T10:55:35.835Z,38.70
2022-12-04T10:58:02.722Z,40.60
2022-12-04T11:00:33.648Z,37.90
2022-12-04T11:03:08.186Z,38.70
2022-12-04T11:05:45.082Z,36.40
2022-12-04T11:08:26.106Z,33.80
2022-12-04T11:11:03.224Z,37.50
2022-12-04T11:13:30.223Z,36.60
2022-12-04T11:15:58.443Z,35.00
2022-12-04T11:18:26.100Z,40.20
2022-12-04T11:21:25.835Z,35.90
2022-12-04T11:23:53.165Z,34.30
2022-12-04T11:26:37.394Z,37.40
2022-12-04T11:29:05.438Z,38.60
2022-12-04T11:31:33.133Z,39.30
2022-12-04T11:34:05.335Z,36.40
2022-12-04T11:36:40.001Z,37.90
2022-12-04T11:39:15.118Z,34.60
2022-12-04T11:41:42.045Z,40.40
2022-12-04T11:44:28.667Z,34.80
2022-12-04T11:47:01.267Z,36.60
2022-12-04T11:49:31.037Z,33.70
2022-12-04T11:52:29.268Z,37.20
2022-12-04T11:55:10.265Z,36.80
2022-12-04T11:58:16.425Z,33.60
2022-12-04T12:01:38.079Z,35.40
2022-12-04T12:04:42.440Z,32.10
2022-12-04T12:07:31.902Z,36.00
2022-12-04T12:10:13.691Z,36.20
2022-12-04T12:12:45.862Z,33.50
2022-12-04T12:15:36.299Z,35.50
2022-12-04T12:18:49.453Z,36.70
2022-12-04T12:21:25.053Z,34.70
2022-12-04T12:24:47.004Z,35.00
2022-12-04T12:27:31.535Z,29.90
2022-12-04T12:32:53.635Z,36.10
2022-12-04T12:35:59.275Z,35.40
2022-12-04T12:38:46.346Z,35.70
2022-12-04T12:41:23.124Z,37.00
2022-12-04T12:44:13.819Z,37.20
2022-12-04T12:46:56.172Z,39.10
2022-12-04T12:49:32.109Z,37.10
2022-12-04T12:52:32.623Z,36.20
2022-12-04T12:55:15.732Z,35.20
2022-12-04T12:57:48.385Z,38.90
2022-12-04T13:00:17.622Z,44.40
2022-12-04T13:03:38.509Z,37.10
2022-12-04T13:06:14.725Z,33.30
2022-12-04T13:09:12.397Z,36.80
2022-12-04T13:11:41.135Z,37.20
2022-12-04T13:14:13.046Z,37.20
2022-12-04T13:16:44.374Z,35.00
2022-12-04T13:19:23.828Z,37.20
2022-12-04T13:22:34.094Z,37.20
2022-12-04T13:25:27.259Z,42.50
2022-12-04T13:28:23.373Z,38.20
2022-12-04T13:31:19.840Z,33.20
2022-12-04T13:34:00.908Z,39.50
2022-12-04T13:37:10.262Z,40.00
2022-12-04T13:40:20.716Z,34.40
2022-12-04T13:42:47.704Z,36.70
2022-12-04T13:45:27.637Z,33.70
2022-12-04T13:48:01.301Z,36.20
2022-12-04T13:50:43.554Z,38.40
2022-12-04T13:53:39.268Z,38.30
2022-12-04T13:56:12.249Z,40.60
2022-12-04T13:58:42.291Z,38.40
2022-12-04T14:01:31.287Z,38.70
2022-12-04T14:03:59.978Z,39.20
2022-12-04T14:06:41.201Z,34.40
2022-12-04T14:09:40.920Z,40.90
2022-12-04T14:12:13.199Z,38.70
2022-12-04T14:14:52.076Z,38.70
2022-12-04T14:17:32.368Z,36.80
2022-12-04T14:20:25.001Z,37.20
2022-12-04T14:22:52.560Z,37.60
2022-12-04T14:25:35.067Z,36.30
2022-12-04T14:28:33.948Z,39.10
2022-12-04T14:31:29.358Z,37.20
2022-12-04T14:34:00.983Z,38.70
2022-12-04T14:36:36.709Z,35.60
2022-12-04T14:39:28.251Z,34.50
2022-12-04T14:42:23.106Z,37.20
2022-12-04T14:44:56.792Z,35.00
2022-12-04T14:47:44.738Z,34.30
2022-12-04T14:50:24.135Z,36.80
2022-12-04T14:53:18.289Z,37.60
2022-12-04T14:56:13.126Z,38.60
2022-12-04T14:58:40.601Z,36.40
2022-12-04T15:01:28.376Z,33.90
2022-12-04T15:03:59.079Z,32.20
2022-12-04T15:06:30.061Z,35.50
2022-12-04T15:09:19.094Z,36.00
2022-12-04T15:12:11.473Z,34.40
2022-12-04T15:14:47.889Z,37.80
2022-12-04T15:17:20.714Z,35.60
2022-12-04T15:19:48.092Z,39.00
2022-12-04T15:22:25.491Z,35.40
2022-12-04T15:24:54.179Z,37.20
2022-12-04T15:27:30.600Z,41.00
2022-12-04T15:30:00.894Z,34.50
2022-12-04T15:32:29.992Z,36.80
2022-12-04T15:35:08.552Z,35.20
2022-12-04T15:37:35.534Z,35.60
2022-12-04T15:40:07.668Z,38.50
2022-12-04T15:42:34.441Z,36.40
2022-12-04T15:45:23.903Z,38.60
2022-12-04T15:47:53.674Z,35.70
2022-12-04T15:50:26.359Z,40.50
2022-12-04T15:53:26.593Z,37.50
2022-12-04T15:55:57.868Z,42.90
2022-12-04T15:58:33.033Z,33.80
2022-12-04T16:01:15.168Z,38.40
2022-12-04T16:03:41.950Z,36.10
2022-12-04T16:06:26.800Z,36.80
2022-12-04T16:09:18.018Z,38.20
2022-12-04T16:11:44.816Z,38.90
2022-12-04T16:14:11.394Z,39.20
2022-12-04T16:16:43.120Z,42.10
2022-12-04T16:19:32.240Z,37.10
2022-12-04T16:22:01.387Z,36.20
2022-12-04T16:24:28.010Z,39.30
2022-12-04T16:26:55.988Z,38.50
2022-12-04T16:29:23.242Z,37.60
2022-12-04T16:31:51.309Z,37.20
2022-12-04T16:34:18.463Z,42.70
2022-12-04T16:36:46.060Z,36.50
2022-12-04T16:39:12.736Z,37.80
2022-12-04T16:41:40.974Z,38.20
2022-12-04T16:44:14.489Z,42.00
2022-12-04T16:46:42.153Z,37.60
2022-12-04T16:49:12.685Z,39.20
2022-12-04T16:51:46.565Z,36.60
2022-12-04T16:54:13.289Z,37.10
2022-12-04T16:56:40.265Z,36.30
2022-12-04T16:59:11.709Z,37.90
2022-12-04T17:01:45.242Z,33.60
2022-12-04T17:04:12.481Z,39.00
2022-12-04T17:06:39.953Z,47.00
2022-12-04T17:09:08.012Z,37.90
2022-12-04T17:11:35.111Z,33.40
2022-12-04T17:14:06.314Z,38.30
2022-12-04T17:16:42.487Z,38.90
2022-12-04T17:19:10.749Z,34.40
2022-12-04T17:21:41.174Z,31.60
2022-12-04T17:24:08.432Z,33.00
2022-12-04T17:26:35.808Z,31.40
2022-12-04T17:29:02.672Z,35.70
2022-12-04T17:31:30.150Z,30.20
2022-12-04T17:33:57.908Z,32.20
2022-12-04T17:36:27.056Z,31.00
2022-12-04T17:39:03.572Z,32.90
2022-12-04T17:41:30.846Z,32.50
2022-12-04T17:44:00.646Z,31.20
2022-12-04T17:46:27.943Z,31.20
2022-12-04T17:48:59.524Z,30.90
2022-12-04T17:51:29.389Z,31.80
2022-12-04T17:54:03.019Z,33.90
2022-12-04T17:56:29.967Z,36.20
2022-12-04T17:58:56.700Z,33.90
2022-12-04T18:01:26.759Z,32.40
2022-12-04T18:04:01.167Z,33.10
2022-12-04T18:06:34.427Z,34.00
2022-12-04T18:09:02.514Z,35.40
2022-12-04T18:11:32.708Z,36.00
2022-12-04T18:14:11.659Z,32.80
2022-12-04T18:16:44.277Z,32.70
2022-12-04T18:19:11.669Z,34.70
2022-12-04T18:21:38.626Z,32.30
2022-12-04T18:24:06.240Z,31.60
2022-12-04T18:26:40.192Z,30.60
2022-12-04T18:29:08.896Z,32.00
2022-12-04T18:31:35.655Z,33.60
2022-12-04T18:34:05.636Z,30.10
2022-12-04T18:36:34.289Z,32.40
2022-12-04T18:39:05.952Z,35.40
2022-12-04T18:41:32.810Z,31.60
2022-12-04T18:43:59.844Z,37.30
2022-12-04T18:46:26.749Z,32.70
2022-12-04T18:48:57.783Z,30.50
2022-12-04T18:51:36.778Z,30.50
2022-12-04T18:54:09.031Z,33.80
2022-12-04T18:56:36.135Z,30.80
2022-12-04T18:59:15.138Z,30.40
2022-12-04T19:01:42.312Z,31.30
2022-12-04T19:04:11.819Z,32.00
2022-12-04T19:06:50.638Z,29.50
2022-12-04T19:09:35.499Z,30.30
2022-12-04T19:12:10.159Z,35.90
2022-12-04T19:14:37.986Z,31.90
2022-12-04T19:17:05.086Z,30.40
2022-12-04T19:19:32.042Z,32.80
2022-12-04T19:22:00.435Z,30.40
2022-12-04T19:24:27.159Z,30.30
2022-12-04T19:26:54.339Z,38.40
2022-12-04T19:29:21.027Z,35.00
2022-12-04T19:31:47.734Z,31.40
2022-12-04T19:34:16.823Z,31.70
2022-12-04T19:36:44.740Z,31.30
2022-12-04T19:39:11.873Z,32.00
2022-12-04T19:41:40.162Z,30.10
2022-12-04T19:44:26.400Z,31.10
2022-12-04T19:46:53.625Z,29.00
2022-12-04T19:49:20.286Z,30.00
2022-12-04T19:51:47.738Z,29.50
2022-12-04T19:54:15.347Z,30.50
2022-12-04T19:56:45.369Z,32.90
2022-12-04T19:59:12.457Z,30.90
2022-12-04T20:01:39.490Z,29.60
2022-12-04T20:04:08.335Z,30.80
2022-12-04T20:06:43.295Z,31.60
2022-12-04T20:09:18.030Z,29.20
2022-12-04T20:11:44.936Z,30.00
2022-12-04T20:14:11.858Z,32.60
2022-12-04T20:16:40.167Z,29.80
2022-12-04T20:19:14.022Z,28.30
2022-12-04T20:21:41.376Z,27.10
2022-12-04T20:24:13.548Z,30.10
2022-12-04T20:26:42.896Z,31.70
2022-12-04T20:29:13.341Z,28.10
2022-12-04T20:31:43.691Z,30.80
2022-12-04T20:34:16.093Z,35.70
2022-12-04T20:36:45.670Z,28.80
2022-12-04T20:39:14.264Z,32.10
2022-12-04T20:41:42.075Z,32.20
2022-12-04T20:44:14.752Z,33.10
2022-12-04T20:46:42.066Z,32.70
2022-12-04T20:49:20.768Z,35.50
2022-12-04T20:51:50.649Z,35.00
2022-12-04T20:54:20.776Z,33.60
2022-12-04T20:56:49.371Z,34.00
2022-12-04T20:59:19.775Z,32.40
2022-12-04T21:01:48.439Z,33.90
2022-12-04T21:04:17.125Z,33.90
2022-12-04T21:06:46.260Z,30.50
2022-12-04T21:09:23.037Z,32.40
2022-12-04T21:11:53.245Z,33.90
2022-12-04T21:14:45.564Z,30.10
2022-12-04T21:17:18.396Z,32.70
2022-12-04T21:19:49.315Z,31.20
2022-12-04T21:22:18.506Z,33.80
2022-12-04T21:24:45.586Z,29.90
2022-12-04T21:27:15.838Z,34.90
2022-12-04T21:29:49.861Z,31.60
2022-12-04T21:32:18.591Z,28.80
2022-12-04T21:34:45.360Z,31.80
2022-12-04T21:37:12.419Z,30.30
2022-12-04T21:39:39.400Z,29.70
2022-12-04T21:42:24.843Z,31.60
2022-12-04T21:44:51.653Z,32.20
2022-12-04T21:47:18.427Z,31.50
2022-12-04T21:49:46.966Z,30.80
2022-12-04T21:52:15.941Z,31.20
2022-12-04T21:54:43.130Z,31.50
2022-12-04T21:57:10.354Z,35.40
2022-12-04T21:59:36.995Z,36.30
2022-12-04T22:02:03.733Z,36.20
2022-12-04T22:04:30.484Z,33.00
2022-12-04T22:06:57.325Z,33.30
2022-12-04T22:09:25.449Z,34.90
2022-12-04T22:11:52.173Z,32.60
2022-12-04T22:14:19.074Z,31.30
2022-12-04T22:16:45.902Z,32.20
2022-12-04T22:19:12.800Z,33.20
2022-12-04T22:21:39.646Z,33.20
2022-12-04T22:24:07.899Z,30.80
2022-12-04T22:26:34.757Z,31.40
2022-12-04T22:29:11.260Z,35.80
2022-12-04T22:31:49.078Z,33.90
2022-12-04T22:34:15.920Z,35.10
2022-12-04T22:36:42.557Z,32.60
2022-12-04T22:39:10.435Z,42.90
2022-12-04T22:41:38.044Z,36.40
2022-12-04T22:44:05.578Z,29.80
2022-12-04T22:46:35.700Z,38.30
2022-12-04T22:49:02.789Z,30.90
2022-12-04T22:51:29.784Z,32.90
2022-12-04T22:53:57.557Z,31.20
2022-12-04T22:56:31.568Z,31.80
2022-12-04T22:58:59.608Z,26.90
2022-12-04T23:01:30.170Z,29.60
2022-12-04T23:03:58.107Z,31.80
2022-12-04T23:06:29.354Z,36.00
2022-12-04T23:09:00.679Z,29.50
2022-12-04T23:11:28.596Z,28.10
2022-12-04T23:14:04.964Z,32.00
2022-12-04T23:16:35.440Z,29.60
2022-12-04T23:19:03.321Z,31.80
2022-12-04T23:21:30.027Z,26.40
2022-12-04T23:23:57.166Z,32.00
2022-12-04T23:26:29.602Z,29.20
2022-12-04T23:28:57.080Z,28.80
2022-12-04T23:31:24.968Z,32.80
2022-12-04T23:33:51.728Z,34.50
2022-12-04T23:36:18.397Z,30.00
2022-12-04T23:38:45.959Z,28.10
2022-12-04T23:41:17.908Z,32.40
2022-12-04T23:43:45.640Z,30.20
2022-12-04T23:46:20.232Z,31.40
2022-12-04T23:48:47.404Z,31.10
2022-12-04T23:51:17.300Z,26.60
2022-12-04T23:53:44.374Z,29.80
2022-12-04T23:56:14.915Z,30.70
2022-12-04T23:58:43.746Z,34.50
